sensor_id;sensor_type;location;lat;lon;timestamp;pressure;altitude;pressure_sealevel;temperature;humidity
76137;BME280;68622;53.128;17.966;2023-07-20T00:00:36;100599.33;;;16.67;69.45
76137;BME280;68622;53.128;17.966;2023-07-20T00:03:22;100592.81;;;16.67;69.43
76137;BME280;68622;53.128;17.966;2023-07-20T00:05:51;100591.96;;;16.72;68.98
76137;BME280;68622;53.128;17.966;2023-07-20T00:08:18;100590.17;;;16.77;68.42
76137;BME280;68622;53.128;17.966;2023-07-20T00:10:46;100595.46;;;16.81;68.81
76137;BME280;68622;53.128;17.966;2023-07-20T00:13:12;100593.04;;;16.82;68.77
76137;BME280;68622;53.128;17.966;2023-07-20T00:15:39;100594.44;;;16.84;68.97
76137;BME280;68622;53.128;17.966;2023-07-20T00:18:06;100597.38;;;16.83;69.36
76137;BME280;68622;53.128;17.966;2023-07-20T00:20:33;100603.65;;;16.82;69.42
76137;BME280;68622;53.128;17.966;2023-07-20T00:22:59;100606.39;;;16.82;69.55
76137;BME280;68622;53.128;17.966;2023-07-20T00:25:26;100603.64;;;16.85;69.18
76137;BME280;68622;53.128;17.966;2023-07-20T00:27:53;100599.13;;;16.86;69.29
76137;BME280;68622;53.128;17.966;2023-07-20T00:30:20;100602.80;;;16.87;69.31
76137;BME280;68622;53.128;17.966;2023-07-20T00:32:47;100611.90;;;16.90;69.11
76137;BME280;68622;53.128;17.966;2023-07-20T00:35:14;100613.77;;;16.94;68.78
76137;BME280;68622;53.128;17.966;2023-07-20T00:37:40;100611.70;;;16.98;68.83
76137;BME280;68622;53.128;17.966;2023-07-20T00:40:07;100607.05;;;17.06;68.23
76137;BME280;68622;53.128;17.966;2023-07-20T00:42:34;100601.72;;;17.14;68.55
76137;BME280;68622;53.128;17.966;2023-07-20T00:45:03;100593.77;;;17.18;68.55
76137;BME280;68622;53.128;17.966;2023-07-20T00:47:31;100594.56;;;17.18;68.25
76137;BME280;68622;53.128;17.966;2023-07-20T00:49:59;100593.47;;;17.19;68.19
76137;BME280;68622;53.128;17.966;2023-07-20T00:52:27;100596.31;;;17.17;68.44
76137;BME280;68622;53.128;17.966;2023-07-20T00:54:55;100595.79;;;17.11;68.81
76137;BME280;68622;53.128;17.966;2023-07-20T00:57:24;100598.52;;;17.06;68.78
76137;BME280;68622;53.128;17.966;2023-07-20T00:59:51;100600.05;;;17.00;68.88
76137;BME280;68622;53.128;17.966;2023-07-20T01:02:19;100602.16;;;16.96;68.79
76137;BME280;68622;53.128;17.966;2023-07-20T01:04:45;100600.02;;;16.96;68.19
76137;BME280;68622;53.128;17.966;2023-07-20T01:07:17;100597.33;;;16.97;68.32
76137;BME280;68622;53.128;17.966;2023-07-20T01:12:36;100600.98;;;16.93;69.19
76137;BME280;68622;53.128;17.966;2023-07-20T01:15:07;100603.48;;;16.93;68.89
76137;BME280;68622;53.128;17.966;2023-07-20T01:17:35;100604.33;;;16.92;69.02
76137;BME280;68622;53.128;17.966;2023-07-20T01:20:02;100605.59;;;16.90;69.32
76137;BME280;68622;53.128;17.966;2023-07-20T01:25:45;100606.69;;;16.85;69.23
76137;BME280;68622;53.128;17.966;2023-07-20T01:31:24;100608.55;;;16.88;68.74
76137;BME280;68622;53.128;17.966;2023-07-20T01:33:56;100608.54;;;16.91;68.63
76137;BME280;68622;53.128;17.966;2023-07-20T01:36:26;100603.23;;;16.91;68.80
76137;BME280;68622;53.128;17.966;2023-07-20T01:38:54;100601.10;;;16.91;68.91
76137;BME280;68622;53.128;17.966;2023-07-20T01:41:21;100602.34;;;16.93;68.58
76137;BME280;68622;53.128;17.966;2023-07-20T01:43:48;100602.30;;;16.93;68.50
76137;BME280;68622;53.128;17.966;2023-07-20T01:46:16;100605.00;;;16.92;68.35
76137;BME280;68622;53.128;17.966;2023-07-20T01:48:43;100605.45;;;16.93;68.28
76137;BME280;68622;53.128;17.966;2023-07-20T01:51:09;100604.14;;;16.91;68.53
76137;BME280;68622;53.128;17.966;2023-07-20T01:53:36;100604.77;;;16.88;68.58
76137;BME280;68622;53.128;17.966;2023-07-20T01:56:03;100606.23;;;16.88;68.65
76137;BME280;68622;53.128;17.966;2023-07-20T01:58:29;100606.39;;;16.85;68.80
76137;BME280;68622;53.128;17.966;2023-07-20T02:00:56;100606.38;;;16.87;68.60
76137;BME280;68622;53.128;17.966;2023-07-20T02:03:23;100608.85;;;16.87;68.95
76137;BME280;68622;53.128;17.966;2023-07-20T02:05:52;100613.64;;;16.88;69.00
76137;BME280;68622;53.128;17.966;2023-07-20T02:08:19;100614.95;;;16.88;68.81
76137;BME280;68622;53.128;17.966;2023-07-20T02:10:47;100614.41;;;16.91;68.65
76137;BME280;68622;53.128;17.966;2023-07-20T02:13:14;100620.39;;;16.91;68.84
76137;BME280;68622;53.128;17.966;2023-07-20T02:15:41;100617.12;;;16.93;68.63
76137;BME280;68622;53.128;17.966;2023-07-20T02:18:09;100620.60;;;16.95;68.59
76137;BME280;68622;53.128;17.966;2023-07-20T02:20:36;100621.05;;;16.96;68.35
76137;BME280;68622;53.128;17.966;2023-07-20T02:23:02;100621.52;;;16.98;68.16
76137;BME280;68622;53.128;17.966;2023-07-20T02:25:29;100622.84;;;17.00;68.40
76137;BME280;68622;53.128;17.966;2023-07-20T02:27:56;100620.94;;;17.00;68.48
76137;BME280;68622;53.128;17.966;2023-07-20T02:30:23;100619.88;;;17.00;68.31
76137;BME280;68622;53.128;17.966;2023-07-20T02:32:50;100617.88;;;17.00;67.95
76137;BME280;68622;53.128;17.966;2023-07-20T02:35:16;100618.40;;;17.00;67.60
76137;BME280;68622;53.128;17.966;2023-07-20T02:37:43;100613.27;;;17.01;67.31
76137;BME280;68622;53.128;17.966;2023-07-20T02:40:10;100608.77;;;16.99;67.27
76137;BME280;68622;53.128;17.966;2023-07-20T02:42:37;100607.52;;;16.98;67.26
76137;BME280;68622;53.128;17.966;2023-07-20T02:45:05;100605.48;;;16.94;67.24
76137;BME280;68622;53.128;17.966;2023-07-20T02:47:31;100603.70;;;16.92;67.43
76137;BME280;68622;53.128;17.966;2023-07-20T02:49:58;100603.90;;;16.85;67.32
76137;BME280;68622;53.128;17.966;2023-07-20T02:52:25;100605.44;;;16.86;66.98
76137;BME280;68622;53.128;17.966;2023-07-20T02:54:51;100607.55;;;16.84;67.04
76137;BME280;68622;53.128;17.966;2023-07-20T02:57:18;100606.58;;;16.81;67.31
76137;BME280;68622;53.128;17.966;2023-07-20T02:59:45;100609.87;;;16.79;67.39
76137;BME280;68622;53.128;17.966;2023-07-20T03:02:11;100607.51;;;16.78;67.37
76137;BME280;68622;53.128;17.966;2023-07-20T03:04:38;100610.27;;;16.79;67.54
76137;BME280;68622;53.128;17.966;2023-07-20T03:07:05;100609.74;;;16.79;67.35
76137;BME280;68622;53.128;17.966;2023-07-20T03:09:31;100611.88;;;16.79;67.55
76137;BME280;68622;53.128;17.966;2023-07-20T03:11:58;100609.36;;;16.81;67.21
76137;BME280;68622;53.128;17.966;2023-07-20T03:14:26;100612.44;;;16.84;67.15
76137;BME280;68622;53.128;17.966;2023-07-20T03:16:53;100614.11;;;16.85;67.64
76137;BME280;68622;53.128;17.966;2023-07-20T03:19:19;100610.72;;;16.87;67.15
76137;BME280;68622;53.128;17.966;2023-07-20T03:21:46;100609.92;;;16.91;67.11
76137;BME280;68622;53.128;17.966;2023-07-20T03:24:12;100609.98;;;16.95;67.12
76137;BME280;68622;53.128;17.966;2023-07-20T03:26:39;100609.27;;;16.98;66.93
76137;BME280;68622;53.128;17.966;2023-07-20T03:29:06;100603.47;;;16.99;66.76
76137;BME280;68622;53.128;17.966;2023-07-20T03:31:33;100610.40;;;17.03;67.02
76137;BME280;68622;53.128;17.966;2023-07-20T03:33:59;100606.77;;;17.01;66.65
76137;BME280;68622;53.128;17.966;2023-07-20T03:36:26;100615.84;;;17.07;66.41
76137;BME280;68622;53.128;17.966;2023-07-20T03:38:52;100620.02;;;17.11;66.46
76137;BME280;68622;53.128;17.966;2023-07-20T03:41:19;100615.23;;;17.09;66.36
76137;BME280;68622;53.128;17.966;2023-07-20T03:43:48;100617.58;;;17.11;66.32
76137;BME280;68622;53.128;17.966;2023-07-20T03:46:15;100616.94;;;17.13;66.14
76137;BME280;68622;53.128;17.966;2023-07-20T03:48:42;100616.98;;;17.17;66.14
76137;BME280;68622;53.128;17.966;2023-07-20T03:51:08;100616.58;;;17.16;66.43
76137;BME280;68622;53.128;17.966;2023-07-20T03:53:35;100615.88;;;17.16;66.48
76137;BME280;68622;53.128;17.966;2023-07-20T03:56:02;100618.69;;;17.13;66.52
76137;BME280;68622;53.128;17.966;2023-07-20T03:58:28;100616.05;;;17.12;66.53
76137;BME280;68622;53.128;17.966;2023-07-20T04:00:57;100613.15;;;17.14;66.14
76137;BME280;68622;53.128;17.966;2023-07-20T04:03:23;100611.79;;;17.18;66.23
76137;BME280;68622;53.128;17.966;2023-07-20T04:05:54;100611.14;;;17.22;66.03
76137;BME280;68622;53.128;17.966;2023-07-20T04:08:24;100613.34;;;17.27;65.72
76137;BME280;68622;53.128;17.966;2023-07-20T04:10:51;100620.67;;;17.30;65.41
76137;BME280;68622;53.128;17.966;2023-07-20T04:13:18;100619.71;;;17.40;65.18
76137;BME280;68622;53.128;17.966;2023-07-20T04:15:45;100622.40;;;17.53;64.83
76137;BME280;68622;53.128;17.966;2023-07-20T04:18:11;100624.33;;;17.66;64.34
76137;BME280;68622;53.128;17.966;2023-07-20T04:20:38;100623.97;;;17.72;64.00
76137;BME280;68622;53.128;17.966;2023-07-20T04:23:05;100628.14;;;17.76;64.12
76137;BME280;68622;53.128;17.966;2023-07-20T04:25:32;100624.92;;;17.80;64.13
76137;BME280;68622;53.128;17.966;2023-07-20T04:28:06;100627.14;;;17.83;63.85
76137;BME280;68622;53.128;17.966;2023-07-20T04:30:39;100625.99;;;17.86;63.72
76137;BME280;68622;53.128;17.966;2023-07-20T04:33:06;100624.61;;;17.91;63.85
76137;BME280;68622;53.128;17.966;2023-07-20T04:35:50;100625.98;;;17.99;63.55
76137;BME280;68622;53.128;17.966;2023-07-20T04:38:19;100620.21;;;18.07;63.31
76137;BME280;68622;53.128;17.966;2023-07-20T04:40:50;100620.30;;;18.12;63.10
76137;BME280;68622;53.128;17.966;2023-07-20T04:43:18;100620.64;;;18.21;62.78
76137;BME280;68622;53.128;17.966;2023-07-20T04:45:45;100623.36;;;18.25;62.73
76137;BME280;68622;53.128;17.966;2023-07-20T04:48:14;100623.67;;;18.29;62.42
76137;BME280;68622;53.128;17.966;2023-07-20T04:50:48;100622.92;;;18.38;62.02
76137;BME280;68622;53.128;17.966;2023-07-20T04:53:15;100620.14;;;18.47;60.90
76137;BME280;68622;53.128;17.966;2023-07-20T04:55:48;100623.04;;;18.54;60.38
76137;BME280;68622;53.128;17.966;2023-07-20T04:58:19;100625.20;;;18.59;60.62
76137;BME280;68622;53.128;17.966;2023-07-20T05:00:46;100627.88;;;18.62;60.33
76137;BME280;68622;53.128;17.966;2023-07-20T05:03:12;100623.80;;;18.57;60.33
76137;BME280;68622;53.128;17.966;2023-07-20T05:05:39;100625.23;;;18.46;60.08
76137;BME280;68622;53.128;17.966;2023-07-20T05:08:06;100622.73;;;18.55;60.14
76137;BME280;68622;53.128;17.966;2023-07-20T05:10:33;100619.95;;;18.69;60.04
76137;BME280;68622;53.128;17.966;2023-07-20T05:13:00;100620.86;;;18.93;59.54
76137;BME280;68622;53.128;17.966;2023-07-20T05:15:26;100621.57;;;19.04;58.76
76137;BME280;68622;53.128;17.966;2023-07-20T05:17:54;100623.02;;;19.16;58.71
76137;BME280;68622;53.128;17.966;2023-07-20T05:20:20;100626.11;;;19.28;58.78
76137;BME280;68622;53.128;17.966;2023-07-20T05:22:47;100623.65;;;19.26;57.98
76137;BME280;68622;53.128;17.966;2023-07-20T05:25:14;100626.55;;;19.21;57.42
76137;BME280;68622;53.128;17.966;2023-07-20T05:27:44;100621.18;;;19.26;58.39
76137;BME280;68622;53.128;17.966;2023-07-20T05:30:12;100624.06;;;19.31;58.18
76137;BME280;68622;53.128;17.966;2023-07-20T05:32:39;100626.27;;;19.38;57.99
76137;BME280;68622;53.128;17.966;2023-07-20T05:35:06;100630.63;;;19.45;57.80
76137;BME280;68622;53.128;17.966;2023-07-20T05:37:33;100629.64;;;19.43;57.36
76137;BME280;68622;53.128;17.966;2023-07-20T05:40:00;100636.63;;;19.36;56.99
76137;BME280;68622;53.128;17.966;2023-07-20T05:42:26;100632.61;;;19.47;57.21
76137;BME280;68622;53.128;17.966;2023-07-20T05:44:53;100630.67;;;19.49;56.61
76137;BME280;68622;53.128;17.966;2023-07-20T05:47:20;100631.90;;;19.52;56.40
76137;BME280;68622;53.128;17.966;2023-07-20T05:49:47;100630.55;;;19.71;56.28
76137;BME280;68622;53.128;17.966;2023-07-20T05:52:14;100630.52;;;20.11;55.75
76137;BME280;68622;53.128;17.966;2023-07-20T05:54:40;100623.70;;;20.30;54.89
76137;BME280;68622;53.128;17.966;2023-07-20T05:57:07;100625.84;;;20.59;54.04
76137;BME280;68622;53.128;17.966;2023-07-20T05:59:34;100624.55;;;20.78;54.32
76137;BME280;68622;53.128;17.966;2023-07-20T06:02:00;100620.56;;;20.80;53.09
76137;BME280;68622;53.128;17.966;2023-07-20T06:04:27;100621.09;;;20.73;53.18
76137;BME280;68622;53.128;17.966;2023-07-20T06:06:53;100617.11;;;20.74;52.66
76137;BME280;68622;53.128;17.966;2023-07-20T06:09:20;100617.34;;;20.88;52.01
76137;BME280;68622;53.128;17.966;2023-07-20T06:11:47;100619.31;;;21.09;51.22
76137;BME280;68622;53.128;17.966;2023-07-20T06:14:13;100620.66;;;21.06;50.84
76137;BME280;68622;53.128;17.966;2023-07-20T06:16:40;100621.95;;;21.14;50.81
76137;BME280;68622;53.128;17.966;2023-07-20T06:19:07;100621.77;;;21.09;50.45
76137;BME280;68622;53.128;17.966;2023-07-20T06:21:33;100622.70;;;21.15;50.13
76137;BME280;68622;53.128;17.966;2023-07-20T06:24:00;100620.17;;;21.18;49.58
76137;BME280;68622;53.128;17.966;2023-07-20T06:26:26;100623.65;;;21.22;49.41
76137;BME280;68622;53.128;17.966;2023-07-20T06:28:53;100622.11;;;21.30;49.30
76137;BME280;68622;53.128;17.966;2023-07-20T06:31:19;100623.20;;;21.52;49.67
76137;BME280;68622;53.128;17.966;2023-07-20T06:33:46;100620.38;;;21.64;49.24
76137;BME280;68622;53.128;17.966;2023-07-20T06:36:13;100621.44;;;21.75;49.30
76137;BME280;68622;53.128;17.966;2023-07-20T06:38:39;100618.36;;;21.60;48.04
76137;BME280;68622;53.128;17.966;2023-07-20T06:41:06;100620.71;;;21.35;48.52
76137;BME280;68622;53.128;17.966;2023-07-20T06:43:32;100627.21;;;21.23;48.93
76137;BME280;68622;53.128;17.966;2023-07-20T06:45:59;100623.93;;;21.08;49.35
76137;BME280;68622;53.128;17.966;2023-07-20T06:48:25;100624.29;;;21.15;49.77
76137;BME280;68622;53.128;17.966;2023-07-20T06:50:52;100626.73;;;21.10;49.63
76137;BME280;68622;53.128;17.966;2023-07-20T06:53:19;100624.73;;;21.19;49.91
76137;BME280;68622;53.128;17.966;2023-07-20T06:55:46;100624.21;;;21.49;49.83
76137;BME280;68622;53.128;17.966;2023-07-20T06:58:13;100622.77;;;21.87;49.23
76137;BME280;68622;53.128;17.966;2023-07-20T07:00:39;100621.08;;;22.12;48.36
76137;BME280;68622;53.128;17.966;2023-07-20T07:03:06;100620.46;;;22.20;48.07
76137;BME280;68622;53.128;17.966;2023-07-20T07:05:37;100618.92;;;22.13;47.30
76137;BME280;68622;53.128;17.966;2023-07-20T07:08:04;100620.81;;;22.31;46.98
76137;BME280;68622;53.128;17.966;2023-07-20T07:10:32;100621.92;;;22.30;47.76
76137;BME280;68622;53.128;17.966;2023-07-20T07:12:58;100625.98;;;22.31;47.50
76137;BME280;68622;53.128;17.966;2023-07-20T07:15:26;100626.27;;;22.49;46.41
76137;BME280;68622;53.128;17.966;2023-07-20T07:17:54;100630.16;;;22.48;46.38
76137;BME280;68622;53.128;17.966;2023-07-20T07:20:21;100629.81;;;22.44;46.75
76137;BME280;68622;53.128;17.966;2023-07-20T07:22:50;100627.67;;;22.51;46.97
76137;BME280;68622;53.128;17.966;2023-07-20T07:25:18;100624.61;;;22.69;46.16
76137;BME280;68622;53.128;17.966;2023-07-20T07:27:45;100622.08;;;22.88;45.50
76137;BME280;68622;53.128;17.966;2023-07-20T07:30:12;100625.27;;;22.95;45.28
76137;BME280;68622;53.128;17.966;2023-07-20T07:32:39;100623.41;;;22.98;45.11
76137;BME280;68622;53.128;17.966;2023-07-20T07:35:06;100622.46;;;23.12;44.73
76137;BME280;68622;53.128;17.966;2023-07-20T07:37:32;100623.49;;;23.14;44.44
76137;BME280;68622;53.128;17.966;2023-07-20T07:39:59;100623.30;;;23.06;44.35
76137;BME280;68622;53.128;17.966;2023-07-20T07:42:25;100625.56;;;23.12;44.41
76137;BME280;68622;53.128;17.966;2023-07-20T07:44:52;100628.03;;;23.06;44.54
76137;BME280;68622;53.128;17.966;2023-07-20T07:47:18;100630.75;;;23.16;44.45
76137;BME280;68622;53.128;17.966;2023-07-20T07:49:45;100629.48;;;23.03;44.02
76137;BME280;68622;53.128;17.966;2023-07-20T07:52:12;100632.63;;;22.98;44.16
76137;BME280;68622;53.128;17.966;2023-07-20T07:54:40;100631.14;;;22.97;43.69
76137;BME280;68622;53.128;17.966;2023-07-20T07:57:07;100632.68;;;22.92;44.31
76137;BME280;68622;53.128;17.966;2023-07-20T07:59:33;100631.33;;;22.93;43.99
76137;BME280;68622;53.128;17.966;2023-07-20T08:02:04;100627.14;;;23.09;43.97
76137;BME280;68622;53.128;17.966;2023-07-20T08:04:31;100628.45;;;23.08;43.63
76137;BME280;68622;53.128;17.966;2023-07-20T08:06:59;100629.52;;;23.04;43.22
76137;BME280;68622;53.128;17.966;2023-07-20T08:09:25;100629.23;;;22.95;42.70
76137;BME280;68622;53.128;17.966;2023-07-20T08:11:52;100625.85;;;22.94;43.01
76137;BME280;68622;53.128;17.966;2023-07-20T08:14:18;100623.84;;;22.88;43.58
76137;BME280;68622;53.128;17.966;2023-07-20T08:16:46;100626.96;;;22.65;43.29
76137;BME280;68622;53.128;17.966;2023-07-20T08:19:13;100627.56;;;22.57;43.43
76137;BME280;68622;53.128;17.966;2023-07-20T08:21:40;100628.01;;;22.66;43.30
76137;BME280;68622;53.128;17.966;2023-07-20T08:24:07;100624.08;;;22.76;43.85
76137;BME280;68622;53.128;17.966;2023-07-20T08:26:33;100622.92;;;22.66;43.92
76137;BME280;68622;53.128;17.966;2023-07-20T08:29:00;100623.73;;;22.60;43.88
76137;BME280;68622;53.128;17.966;2023-07-20T08:31:26;100628.77;;;22.67;43.36
76137;BME280;68622;53.128;17.966;2023-07-20T08:33:54;100627.52;;;22.82;42.82
76137;BME280;68622;53.128;17.966;2023-07-20T08:36:23;100629.76;;;22.87;42.86
76137;BME280;68622;53.128;17.966;2023-07-20T08:38:50;100633.23;;;22.96;43.04
76137;BME280;68622;53.128;17.966;2023-07-20T08:41:18;100628.65;;;23.01;43.42
76137;BME280;68622;53.128;17.966;2023-07-20T08:43:46;100629.89;;;23.03;43.39
76137;BME280;68622;53.128;17.966;2023-07-20T08:46:13;100622.96;;;23.02;42.74
76137;BME280;68622;53.128;17.966;2023-07-20T08:48:42;100625.02;;;22.92;42.83
76137;BME280;68622;53.128;17.966;2023-07-20T08:51:10;100625.80;;;22.73;42.40
76137;BME280;68622;53.128;17.966;2023-07-20T08:53:37;100629.39;;;22.63;42.41
76137;BME280;68622;53.128;17.966;2023-07-20T08:56:05;100626.67;;;22.56;42.84
76137;BME280;68622;53.128;17.966;2023-07-20T08:58:34;100625.09;;;22.37;43.18
76137;BME280;68622;53.128;17.966;2023-07-20T09:01:01;100624.66;;;22.34;43.12
76137;BME280;68622;53.128;17.966;2023-07-20T09:03:28;100627.84;;;22.53;43.26
76137;BME280;68622;53.128;17.966;2023-07-20T09:05:55;100622.27;;;22.84;43.22
76137;BME280;68622;53.128;17.966;2023-07-20T09:08:22;100621.60;;;23.13;42.19
76137;BME280;68622;53.128;17.966;2023-07-20T09:10:48;100611.93;;;23.31;41.24
76137;BME280;68622;53.128;17.966;2023-07-20T09:13:15;100606.44;;;23.55;41.11
76137;BME280;68622;53.128;17.966;2023-07-20T09:15:46;100604.94;;;23.73;40.18
76137;BME280;68622;53.128;17.966;2023-07-20T09:18:32;100603.64;;;23.84;40.11
76137;BME280;68622;53.128;17.966;2023-07-20T09:21:02;100601.02;;;24.06;40.28
76137;BME280;68622;53.128;17.966;2023-07-20T09:23:37;100598.98;;;24.11;39.27
76137;BME280;68622;53.128;17.966;2023-07-20T09:26:13;100592.50;;;24.29;39.61
76137;BME280;68622;53.128;17.966;2023-07-20T09:28:49;100593.20;;;24.48;38.27
76137;BME280;68622;53.128;17.966;2023-07-20T09:31:21;100591.24;;;24.66;38.37
76137;BME280;68622;53.128;17.966;2023-07-20T09:33:49;100591.27;;;24.61;37.42
76137;BME280;68622;53.128;17.966;2023-07-20T09:36:18;100589.23;;;24.61;37.64
76137;BME280;68622;53.128;17.966;2023-07-20T09:38:45;100595.52;;;24.45;37.70
76137;BME280;68622;53.128;17.966;2023-07-20T09:41:15;100587.08;;;24.50;37.41
76137;BME280;68622;53.128;17.966;2023-07-20T09:43:42;100589.66;;;24.40;38.01
76137;BME280;68622;53.128;17.966;2023-07-20T09:46:08;100596.66;;;24.19;37.77
76137;BME280;68622;53.128;17.966;2023-07-20T09:48:35;100598.59;;;23.99;38.20
76137;BME280;68622;53.128;17.966;2023-07-20T09:51:03;100588.54;;;23.91;38.36
76137;BME280;68622;53.128;17.966;2023-07-20T09:53:33;100589.40;;;23.88;38.03
76137;BME280;68622;53.128;17.966;2023-07-20T09:56:00;100587.80;;;23.94;38.44
76137;BME280;68622;53.128;17.966;2023-07-20T09:58:31;100592.48;;;23.96;38.64
76137;BME280;68622;53.128;17.966;2023-07-20T10:01:02;100584.52;;;23.84;38.45
76137;BME280;68622;53.128;17.966;2023-07-20T10:03:37;100583.80;;;23.93;38.67
76137;BME280;68622;53.128;17.966;2023-07-20T10:06:06;100582.55;;;24.15;38.46
76137;BME280;68622;53.128;17.966;2023-07-20T10:08:39;100583.05;;;24.33;37.20
76137;BME280;68622;53.128;17.966;2023-07-20T10:11:08;100578.22;;;24.34;36.29
76137;BME280;68622;53.128;17.966;2023-07-20T10:13:39;100575.62;;;24.32;36.67
76137;BME280;68622;53.128;17.966;2023-07-20T10:16:11;100577.95;;;24.48;37.03
76137;BME280;68622;53.128;17.966;2023-07-20T10:21:09;100562.16;;;24.79;36.06
76137;BME280;68622;53.128;17.966;2023-07-20T10:23:36;100568.23;;;24.95;36.45
76137;BME280;68622;53.128;17.966;2023-07-20T10:26:05;100568.16;;;24.97;36.51
76137;BME280;68622;53.128;17.966;2023-07-20T10:28:32;100567.25;;;25.09;37.12
76137;BME280;68622;53.128;17.966;2023-07-20T10:30:59;100565.97;;;25.00;36.45
76137;BME280;68622;53.128;17.966;2023-07-20T10:33:26;100567.95;;;24.72;36.69
76137;BME280;68622;53.128;17.966;2023-07-20T10:35:55;100571.52;;;24.45;36.97
76137;BME280;68622;53.128;17.966;2023-07-20T10:44:01;100564.89;;;24.28;37.85
76137;BME280;68622;53.128;17.966;2023-07-20T10:46:42;100561.70;;;24.22;38.10
76137;BME280;68622;53.128;17.966;2023-07-20T10:49:11;100561.40;;;23.96;37.86
76137;BME280;68622;53.128;17.966;2023-07-20T10:51:46;100566.04;;;23.86;38.59
76137;BME280;68622;53.128;17.966;2023-07-20T10:56:46;100566.67;;;23.91;38.71
76137;BME280;68622;53.128;17.966;2023-07-20T10:59:37;100562.38;;;23.95;38.17
76137;BME280;68622;53.128;17.966;2023-07-20T11:02:06;100555.26;;;24.31;37.93
76137;BME280;68622;53.128;17.966;2023-07-20T11:04:43;100555.95;;;24.54;37.29
76137;BME280;68622;53.128;17.966;2023-07-20T11:07:15;100550.39;;;24.72;36.37
76137;BME280;68622;53.128;17.966;2023-07-20T11:09:46;100548.76;;;24.82;36.12
76137;BME280;68622;53.128;17.966;2023-07-20T11:12:15;100544.33;;;24.91;36.29
76137;BME280;68622;53.128;17.966;2023-07-20T11:14:58;100544.93;;;25.11;36.54
76137;BME280;68622;53.128;17.966;2023-07-20T11:17:30;100545.39;;;25.27;36.76
76137;BME280;68622;53.128;17.966;2023-07-20T11:20:00;100548.77;;;25.23;36.06
76137;BME280;68622;53.128;17.966;2023-07-20T11:22:28;100547.56;;;25.16;36.77
76137;BME280;68622;53.128;17.966;2023-07-20T11:24:58;100548.45;;;25.08;36.34
76137;BME280;68622;53.128;17.966;2023-07-20T11:27:25;100540.67;;;24.96;35.94
76137;BME280;68622;53.128;17.966;2023-07-20T11:29:51;100542.19;;;25.06;35.99
76137;BME280;68622;53.128;17.966;2023-07-20T11:32:22;100542.38;;;25.09;35.49
76137;BME280;68622;53.128;17.966;2023-07-20T11:34:49;100535.46;;;25.00;35.91
76137;BME280;68622;53.128;17.966;2023-07-20T11:37:17;100536.04;;;24.88;36.11
76137;BME280;68622;53.128;17.966;2023-07-20T11:39:45;100541.89;;;24.79;36.50
76137;BME280;68622;53.128;17.966;2023-07-20T11:42:11;100548.72;;;24.57;36.93
76137;BME280;68622;53.128;17.966;2023-07-20T11:44:38;100576.70;;;24.17;38.58
76137;BME280;68622;53.128;17.966;2023-07-20T11:47:10;100589.79;;;23.49;44.89
76137;BME280;68622;53.128;17.966;2023-07-20T11:49:42;100620.76;;;22.35;49.14
76137;BME280;68622;53.128;17.966;2023-07-20T11:52:16;100637.77;;;21.17;54.22
76137;BME280;68622;53.128;17.966;2023-07-20T11:54:43;100656.95;;;20.47;55.05
76137;BME280;68622;53.128;17.966;2023-07-20T11:57:20;100665.54;;;19.94;57.73
76137;BME280;68622;53.128;17.966;2023-07-20T11:59:57;100658.34;;;19.59;58.12
76137;BME280;68622;53.128;17.966;2023-07-20T12:02:25;100655.86;;;19.22;60.00
76137;BME280;68622;53.128;17.966;2023-07-20T12:04:54;100661.20;;;18.99;59.94
76137;BME280;68622;53.128;17.966;2023-07-20T12:07:21;100662.74;;;18.84;60.89
76137;BME280;68622;53.128;17.966;2023-07-20T12:10:07;100667.66;;;18.75;62.28
76137;BME280;68622;53.128;17.966;2023-07-20T12:12:38;100671.13;;;18.74;62.57
76137;BME280;68622;53.128;17.966;2023-07-20T12:17:53;100661.39;;;18.90;62.45
76137;BME280;68622;53.128;17.966;2023-07-20T12:20:38;100662.17;;;19.18;62.02
76137;BME280;68622;53.128;17.966;2023-07-20T12:23:10;100655.59;;;19.44;61.82
76137;BME280;68622;53.128;17.966;2023-07-20T12:28:09;100662.85;;;19.75;61.40
76137;BME280;68622;53.128;17.966;2023-07-20T12:30:39;100664.80;;;19.95;61.80
76137;BME280;68622;53.128;17.966;2023-07-20T12:33:07;100667.08;;;20.02;61.73
76137;BME280;68622;53.128;17.966;2023-07-20T12:35:34;100663.19;;;20.06;60.83
76137;BME280;68622;53.128;17.966;2023-07-20T12:38:01;100666.75;;;20.18;61.80
76137;BME280;68622;53.128;17.966;2023-07-20T12:40:29;100667.56;;;20.28;61.63
76137;BME280;68622;53.128;17.966;2023-07-20T12:42:57;100665.55;;;20.42;60.87
76137;BME280;68622;53.128;17.966;2023-07-20T12:45:24;100660.95;;;20.59;60.45
76137;BME280;68622;53.128;17.966;2023-07-20T12:47:51;100658.48;;;20.66;61.01
76137;BME280;68622;53.128;17.966;2023-07-20T12:50:18;100656.08;;;20.82;61.84
76137;BME280;68622;53.128;17.966;2023-07-20T12:52:45;100653.79;;;21.08;61.71
76137;BME280;68622;53.128;17.966;2023-07-20T12:55:12;100649.73;;;21.26;61.23
76137;BME280;68622;53.128;17.966;2023-07-20T12:57:40;100643.58;;;21.48;60.71
76137;BME280;68622;53.128;17.966;2023-07-20T13:00:09;100637.23;;;21.60;59.38
76137;BME280;68622;53.128;17.966;2023-07-20T13:02:38;100636.34;;;21.67;59.96
76137;BME280;68622;53.128;17.966;2023-07-20T13:05:04;100636.02;;;21.69;59.49
76137;BME280;68622;53.128;17.966;2023-07-20T13:07:36;100637.55;;;21.72;59.02
76137;BME280;68622;53.128;17.966;2023-07-20T13:10:04;100635.36;;;21.69;57.81